Time;durP1;ratioP1;P1;durP2;ratioP2;P2;SDS_P1;SDS_P2;PMS_P1;PMS_P2;Temp;Humidity;BMP_temperature;BMP_pressure;BME280_temperature;BME280_humidity;BME280_pressure;Samples;Min_cycle;Max_cycle;Signal;HPM_P1;HPM_P2
2022/12/03 00:02:22;;;;;;;46.15;28.05;;;;;;;1.24;100.00;160896.94;5049008;28;20037;-63
2022/12/03 00:04:48;;;;;;;44.88;31.20;;;;;;;1.19;100.00;160882.22;5051562;28;20032;-64
2022/12/03 00:07:13;;;;;;;43.97;31.10;;;;;;;1.26;100.00;160901.00;5050327;28;20530;-64
2022/12/03 00:09:38;;;;;;;46.60;30.30;;;;;;;1.24;100.00;160896.94;5051269;28;20384;-64
2022/12/03 00:12:04;;;;;;;40.92;27.75;;;;;;;1.25;100.00;160899.63;5049893;28;20041;-64
2022/12/03 00:14:29;;;;;;;41.85;29.77;;;;;;;1.30;100.00;160911.69;5051601;28;20025;-63
2022/12/03 00:16:55;;;;;;;39.70;28.45;;;;;;;1.26;100.00;160902.31;5048884;28;20033;-62
2022/12/03 00:19:20;;;;;;;43.17;25.75;;;;;;;1.25;100.00;160899.63;5032602;28;20033;-63
2022/12/03 00:21:45;;;;;;;40.65;26.67;;;;;;;1.26;100.00;160901.00;5030038;28;20038;-63
2022/12/03 00:24:11;;;;;;;41.17;30.25;;;;;;;1.24;100.00;160896.94;5038084;28;20476;-63
2022/12/03 00:26:36;;;;;;;45.10;28.38;;;;;;;1.29;100.00;160907.69;5049772;28;20454;-63
2022/12/03 00:29:02;;;;;;;40.95;29.05;;;;;;;1.31;100.00;160913.03;5050683;28;20017;-63
2022/12/03 00:31:27;;;;;;;35.13;25.38;;;;;;;1.25;100.00;160899.63;5041196;28;20045;-63
2022/12/03 00:33:52;;;;;;;44.80;31.35;;;;;;;1.26;100.00;160902.31;5051051;28;20033;-63
2022/12/03 00:36:18;;;;;;;41.22;29.27;;;;;;;1.27;100.00;160903.63;5049825;28;20492;-62
2022/12/03 00:38:44;;;;;;;36.17;25.65;;;;;;;1.24;100.00;160896.94;5050703;28;20386;-63
2022/12/03 00:41:10;;;;;;;41.42;28.75;;;;;;;1.25;100.00;160898.31;5049307;28;20041;-63
2022/12/03 00:43:35;;;;;;;37.72;28.42;;;;;;;1.24;100.00;160895.63;5050243;28;20076;-63
2022/12/03 00:46:00;;;;;;;37.25;27.13;;;;;;;1.18;100.00;160880.84;5048027;28;20031;-63
2022/12/03 00:48:26;;;;;;;39.65;26.85;;;;;;;1.24;100.00;160896.94;5051350;28;20025;-63
2022/12/03 00:50:51;;;;;;;38.25;27.58;;;;;;;1.27;100.00;160903.63;5049286;28;20025;-63
2022/12/03 00:53:17;;;;;;;41.92;26.13;;;;;;;1.23;100.00;160894.25;5050693;28;20036;-63
2022/12/03 00:55:42;;;;;;;42.70;29.90;;;;;;;1.23;100.00;160894.25;5032734;28;20501;-63
2022/12/03 00:58:08;;;;;;;40.85;27.90;;;;;;;1.26;100.00;160902.31;5042665;28;20041;-63
2022/12/03 01:00:33;;;;;;;44.55;30.55;;;;;;;1.24;100.00;160896.94;5047174;28;20033;-63
2022/12/03 01:02:59;;;;;;;45.00;30.17;;;;;;;1.27;100.00;160905.00;5048888;28;20040;-63
2022/12/03 01:05:24;;;;;;;40.70;28.55;;;;;;;1.27;100.00;160905.00;5050964;28;20033;-64
2022/12/03 01:07:50;;;;;;;44.33;31.42;;;;;;;1.26;100.00;160902.31;5048093;28;20572;-63
2022/12/03 01:10:16;;;;;;;45.20;32.55;;;;;;;1.27;100.00;160903.63;5050632;28;20107;-62
2022/12/03 01:12:41;;;;;;;39.85;28.58;;;;;;;1.26;100.00;160901.00;5049228;28;20037;-62
2022/12/03 01:15:07;;;;;;;35.03;26.80;;;;;;;1.26;100.00;160902.31;5034062;28;20091;-63
2022/12/03 01:17:33;;;;;;;45.45;31.15;;;;;;;1.24;100.00;160896.94;5029004;28;20094;-62
2022/12/03 01:20:00;;;;;;;50.53;30.05;;;;;;;1.23;100.00;160894.25;5030830;28;20033;-62
2022/12/03 01:22:26;;;;;;;43.75;26.80;;;;;;;1.27;100.00;160903.63;5028938;28;20041;-62
2022/12/03 01:24:51;;;;;;;40.58;27.77;;;;;;;1.21;100.00;160888.91;5030297;28;20036;-63
2022/12/03 01:27:16;;;;;;;43.80;30.13;;;;;;;1.26;100.00;160901.00;5049095;28;20048;-62
2022/12/03 01:29:42;;;;;;;42.50;29.58;;;;;;;1.26;100.00;160901.00;5035530;28;20025;-63
2022/12/03 01:32:18;;;;;;;42.50;30.27;;;;;;;1.23;100.00;160894.25;5028634;28;20060;-63
2022/12/03 01:34:48;;;;;;;43.45;28.35;;;;;;;1.24;100.00;160896.94;5030975;28;20032;-62
2022/12/03 01:37:14;;;;;;;40.58;25.90;;;;;;;1.21;100.00;160888.91;5029173;28;20041;-62
2022/12/03 01:39:40;;;;;;;42.90;31.98;;;;;;;1.20;100.00;160886.22;5030107;28;20104;-62
2022/12/03 01:42:08;;;;;;;44.45;29.00;;;;;;;1.21;100.00;160887.53;5028753;28;20568;-62
2022/12/03 01:44:35;;;;;;;42.83;26.97;;;;;;;1.21;100.00;160888.91;5030583;28;20081;-62
2022/12/03 01:47:05;;;;;;;42.80;30.48;;;;;;;1.22;100.00;160891.59;5028487;28;20040;-62
2022/12/03 01:50:04;;;;;;;42.08;28.50;;;;;;;1.20;100.00;160886.22;5030404;28;20033;-62
2022/12/03 01:52:37;;;;;;;42.78;31.02;;;;;;;1.22;100.00;160891.59;5045642;28;20064;-62
2022/12/03 01:55:10;;;;;;;40.72;29.00;;;;;;;1.19;100.00;160882.22;5051851;28;20034;-62
2022/12/03 01:57:46;;;;;;;44.08;27.13;;;;;;;1.18;100.00;160880.84;5032826;28;20041;-62
2022/12/03 02:00:21;;;;;;;39.30;28.35;;;;;;;1.04;100.00;160844.63;5033561;28;20040;-62
2022/12/03 02:02:52;;;;;;;44.15;25.88;;;;;;;1.19;100.00;160883.53;5032924;28;20061;-62
2022/12/03 02:05:21;;;;;;;39.20;29.05;;;;;;;1.20;100.00;160886.22;5034108;28;20033;-62
2022/12/03 02:07:46;;;;;;;38.20;26.85;;;;;;;1.16;100.00;160875.47;5032261;28;20037;-62
2022/12/03 02:10:15;;;;;;;38.33;26.77;;;;;;;1.17;100.00;160878.16;5034008;28;20052;-62
2022/12/03 02:12:45;;;;;;;35.65;26.48;;;;;;;1.16;100.00;160875.47;5049852;28;20411;-62
2022/12/03 02:15:11;;;;;;;40.35;27.00;;;;;;;1.13;100.00;160866.06;5051709;28;20040;-62
2022/12/03 02:17:37;;;;;;;40.63;27.13;;;;;;;1.16;100.00;160875.47;5051827;28;20120;-62
2022/12/03 02:20:07;;;;;;;37.92;25.08;;;;;;;1.16;100.00;160875.47;5053358;28;20028;-63
2022/12/03 02:23:06;;;;;;;34.70;26.48;;;;;;;1.17;100.00;160878.16;5051879;28;20165;-63
2022/12/03 02:25:33;;;;;;;39.50;25.00;;;;;;;1.11;100.00;160862.06;5052592;28;20475;-63
2022/12/03 02:27:59;;;;;;;44.72;27.85;;;;;;;1.08;100.00;160854.06;5051635;28;20044;-63
2022/12/03 02:30:26;;;;;;;37.95;26.75;;;;;;;1.09;100.00;160856.69;5052040;28;20033;-63
2022/12/03 02:32:52;;;;;;;41.83;28.13;;;;;;;1.07;100.00;160851.38;5031927;28;20037;-63
2022/12/03 02:35:27;;;;;;;36.85;25.38;;;;;;;1.07;100.00;160851.38;5033589;28;20514;-63
2022/12/03 02:38:00;;;;;;;39.28;26.00;;;;;;;1.04;100.00;160844.63;5031554;28;20052;-63
2022/12/03 02:40:29;;;;;;;35.83;27.00;;;;;;;1.03;100.00;160840.59;5033345;28;20503;-63
2022/12/03 02:42:58;;;;;;;34.45;25.63;;;;;;;1.04;100.00;160843.28;5031778;28;20049;-63
2022/12/03 02:45:31;;;;;;;36.85;26.17;;;;;;;1.06;100.00;160848.69;5033225;28;20041;-63
2022/12/03 02:48:08;;;;;;;38.92;26.38;;;;;;;1.05;100.00;160847.31;5031847;28;20046;-63
2022/12/03 02:50:38;;;;;;;37.88;26.02;;;;;;;1.04;100.00;160843.28;5033345;28;20044;-63
2022/12/03 02:53:07;;;;;;;39.60;26.95;;;;;;;0.98;100.00;160827.22;5031264;28;20042;-63
2022/12/03 02:55:33;;;;;;;;;;;;;;;0.99;100.00;160831.22;5034111;28;20029;-63
2022/12/03 02:57:59;;;;;;;45.30;28.23;;;;;;;0.91;100.00;160809.75;5031435;28;20287;-63
2022/12/03 03:00:24;;;;;;;43.42;26.40;;;;;;;0.95;100.00;160821.84;5034665;28;20775;-64
2022/12/03 03:02:50;;;;;;;47.53;26.55;;;;;;;0.94;100.00;160817.81;5032184;28;20045;-63
2022/12/03 03:05:19;;;;;;;41.58;28.75;;;;;;;0.99;100.00;160831.22;5033594;28;20100;-63
2022/12/03 03:07:44;;;;;;;47.25;28.23;;;;;;;0.97;100.00;160825.84;5051162;28;20411;-63
2022/12/03 03:10:14;;;;;;;44.85;28.00;;;;;;;0.94;100.00;160819.16;5051852;28;20024;-63
2022/12/03 03:12:39;;;;;;;42.33;28.95;;;;;;;0.94;100.00;160819.16;5050711;28;20064;-63
2022/12/03 03:15:06;;;;;;;51.13;29.33;;;;;;;0.91;100.00;160811.13;5052107;28;20068;-63
2022/12/03 03:17:32;;;;;;;57.30;33.35;;;;;;;0.84;100.00;160792.34;5051109;28;20045;-64
2022/12/03 03:19:58;;;;;;;46.20;31.45;;;;;;;0.89;100.00;160805.75;5050750;28;20031;-64
2022/12/03 03:22:34;;;;;;;44.15;29.95;;;;;;;0.88;100.00;160801.75;5030888;28;20041;-63
2022/12/03 03:25:00;;;;;;;42.58;29.77;;;;;;;0.83;100.00;160789.66;5032391;28;20067;-61
2022/12/03 03:27:26;;;;;;;50.60;32.13;;;;;;;0.85;100.00;160795.03;5031406;28;20046;-61
2022/12/03 03:29:52;;;;;;;44.70;28.20;;;;;;;0.86;100.00;160796.38;5031999;28;20022;-61
2022/12/03 03:32:18;;;;;;;53.90;30.77;;;;;;;0.83;100.00;160788.28;5030948;28;20132;-61
2022/12/03 03:34:43;;;;;;;48.42;30.42;;;;;;;0.81;100.00;160782.97;5032562;28;20056;-61
2022/12/03 03:37:08;;;;;;;43.58;30.45;;;;;;;0.79;100.00;160778.91;5030316;28;20389;-61
2022/12/03 03:39:34;;;;;;;46.33;33.35;;;;;;;0.82;100.00;160785.66;5032384;28;20507;-61
2022/12/03 03:41:59;;;;;;;38.75;29.17;;;;;;;0.81;100.00;160784.28;5031603;28;20428;-61
2022/12/03 03:44:25;;;;;;;45.85;28.98;;;;;;;0.79;100.00;160780.28;5031838;28;20132;-61
2022/12/03 03:46:50;;;;;;;44.92;30.23;;;;;;;0.84;100.00;160790.97;5030531;28;20038;-61
2022/12/03 03:49:16;;;;;;;45.58;31.27;;;;;;;0.83;100.00;160789.66;5032398;28;20032;-61
2022/12/03 03:51:41;;;;;;;50.08;33.10;;;;;;;0.83;100.00;160789.66;5030462;28;20049;-61
2022/12/03 03:54:07;;;;;;;49.80;31.70;;;;;;;0.81;100.00;160782.97;5031847;28;20432;-61
2022/12/03 03:56:33;;;;;;;47.50;30.67;;;;;;;0.84;100.00;160790.97;5042644;28;20041;-61
2022/12/03 03:58:59;;;;;;;47.83;33.00;;;;;;;0.82;100.00;160785.66;5045365;28;20030;-61
2022/12/03 04:01:26;;;;;;;48.38;32.30;;;;;;;0.80;100.00;160781.59;5030517;28;20038;-61
2022/12/03 04:03:52;;;;;;;42.95;32.95;;;;;;;0.79;100.00;160780.28;5031838;28;20017;-61
2022/12/03 04:06:18;;;;;;;51.13;33.50;;;;;;;0.81;100.00;160784.28;5036341;28;20503;-61
2022/12/03 04:08:43;;;;;;;42.88;30.08;;;;;;;0.81;100.00;160784.28;5038676;28;20036;-61
2022/12/03 04:13:52;;;;;;;45.42;32.25;;;;;;;0.80;100.00;160781.59;5031292;28;20056;-61
2022/12/03 04:16:18;;;;;;;47.17;29.88;;;;;;;0.81;100.00;160782.97;5030002;28;20041;-61
2022/12/03 04:18:43;;;;;;;43.63;29.45;;;;;;;0.79;100.00;160778.91;5031673;28;20022;-61
2022/12/03 04:23:57;;;;;;;48.63;31.05;;;;;;;0.77;100.00;160773.59;5051435;28;20110;-61
2022/12/03 04:29:06;;;;;;;41.65;27.05;;;;;;;0.78;100.00;160776.28;5031186;28;20028;-61
2022/12/03 04:37:00;;;;;;;45.97;26.27;;;;;;;0.80;100.00;160781.59;5029489;28;20070;-61
2022/12/03 04:39:25;;;;;;;43.17;31.02;;;;;;;0.77;100.00;160773.59;5031341;28;20037;-61
2022/12/03 04:41:50;;;;;;;45.55;30.40;;;;;;;0.77;100.00;160773.59;5048852;28;20036;-61
2022/12/03 04:47:20;;;;;;;38.05;25.67;;;;;;;0.74;100.00;160765.53;5048536;28;20051;-61
2022/12/03 04:49:48;;;;;;;52.15;29.60;;;;;;;0.77;100.00;160773.59;5050903;28;20044;-61
2022/12/03 04:52:16;;;;;;;46.45;31.17;;;;;;;0.78;100.00;160776.28;5049365;28;20091;-61
2022/12/03 04:54:42;;;;;;;46.95;29.52;;;;;;;0.71;100.00;160757.50;5050359;28;20033;-61
2022/12/03 04:57:08;;;;;;;44.40;26.73;;;;;;;0.71;100.00;160757.50;5049263;28;20049;-61
2022/12/03 04:59:34;;;;;;;48.22;27.15;;;;;;;0.74;100.00;160766.88;5050430;28;20474;-61
2022/12/03 05:02:00;;;;;;;44.28;29.02;;;;;;;0.73;100.00;160762.84;5048390;28;20542;-61
2022/12/03 05:04:25;;;;;;;58.83;31.48;;;;;;;0.67;100.00;160746.75;5050069;28;20027;-61
2022/12/03 05:06:51;;;;;;;50.15;25.70;;;;;;;0.68;100.00;160749.44;5048798;28;20033;-61
2022/12/03 05:09:16;;;;;;;50.28;31.88;;;;;;;0.68;100.00;160749.44;5051116;28;20051;-61
2022/12/03 05:11:42;;;;;;;56.65;36.42;;;;;;;0.68;100.00;160750.75;5049223;28;20071;-61
2022/12/03 05:14:08;;;;;;;54.08;31.33;;;;;;;0.71;100.00;160757.50;5037905;28;20404;-61
2022/12/03 05:16:33;;;;;;;54.95;33.65;;;;;;;0.71;100.00;160757.50;5029323;28;20037;-61
2022/12/03 05:18:58;;;;;;;54.55;32.55;;;;;;;0.72;100.00;160761.50;5030412;28;20061;-61
2022/12/03 05:21:24;;;;;;;59.47;33.17;;;;;;;0.73;100.00;160762.84;5029042;28;20037;-61
2022/12/03 05:23:49;;;;;;;66.38;38.60;;;;;;;0.70;100.00;160756.13;5030410;28;20140;-61
2022/12/03 05:26:15;;;;;;;66.80;37.17;;;;;;;0.69;100.00;160752.13;5044438;28;20044;-62
2022/12/03 05:28:40;;;;;;;59.80;34.85;;;;;;;0.66;100.00;160745.44;5044639;28;20496;-61
2022/12/03 05:31:05;;;;;;;60.50;35.55;;;;;;;0.69;100.00;160752.13;5033015;28;20041;-64
2022/12/03 05:33:31;;;;;;;69.65;37.17;;;;;;;0.63;100.00;160738.69;5034948;28;20022;-64
2022/12/03 05:35:56;;;;;;;61.33;35.08;;;;;;;0.59;100.00;160727.97;5032613;28;20040;-64
2022/12/03 05:38:22;;;;;;;64.40;37.55;;;;;;;0.66;100.00;160744.06;5034821;28;20451;-65
2022/12/03 05:40:47;;;;;;;62.85;36.28;;;;;;;0.69;100.00;160752.13;5032953;28;20037;-63
2022/12/03 05:43:12;;;;;;;60.13;37.22;;;;;;;0.62;100.00;160736.06;5034051;28;20033;-64
2022/12/03 05:45:39;;;;;;;61.33;38.38;;;;;;;0.62;100.00;160734.69;5034417;28;20057;-63
2022/12/03 05:48:08;;;;;;;67.95;38.05;;;;;;;0.62;100.00;160734.69;5032691;28;20405;-63
2022/12/03 05:50:35;;;;;;;62.65;38.72;;;;;;;0.66;100.00;160744.06;5034179;28;20021;-64
2022/12/03 05:53:01;;;;;;;62.63;32.30;;;;;;;0.66;100.00;160745.44;5032681;28;20077;-64
2022/12/03 05:55:27;;;;;;;70.20;39.47;;;;;;;0.64;100.00;160740.06;5034501;28;20025;-64
2022/12/03 05:57:52;;;;;;;67.22;38.05;;;;;;;0.59;100.00;160727.97;5033034;28;20045;-63
2022/12/03 06:00:19;;;;;;;79.00;44.05;;;;;;;0.56;100.00;160719.91;5034162;28;20033;-63
2022/12/03 06:02:44;;;;;;;85.07;45.22;;;;;;;0.55;100.00;160717.28;5032835;28;20042;-64
2022/12/03 06:05:11;;;;;;;65.63;39.03;;;;;;;0.56;100.00;160718.59;5033857;28;20033;-65
2022/12/03 06:07:37;;;;;;;76.70;41.85;;;;;;;0.53;100.00;160711.91;5032669;28;20071;-64
2022/12/03 06:10:04;;;;;;;69.05;41.08;;;;;;;0.57;100.00;160721.28;5033952;28;20492;-65
2022/12/03 06:12:30;;;;;;;73.95;39.70;;;;;;;0.53;100.00;160711.91;5041198;28;20048;-66
2022/12/03 06:14:55;;;;;;;71.30;41.85;;;;;;;0.48;100.00;160698.50;5036319;28;20017;-65
2022/12/03 06:17:20;;;;;;;66.75;36.45;;;;;;;0.46;100.00;160694.44;5041660;28;20048;-65
2022/12/03 06:19:46;;;;;;;79.70;41.20;;;;;;;0.47;100.00;160695.81;5033565;28;20022;-65
2022/12/03 06:22:11;;;;;;;72.95;43.50;;;;;;;0.39;100.00;160674.38;5032005;28;20041;-65
2022/12/03 06:24:37;;;;;;;68.07;37.83;;;;;;;0.42;100.00;160682.38;5034073;28;20033;-65
2022/12/03 06:27:02;;;;;;;69.63;39.67;;;;;;;0.42;100.00;160683.75;5031736;28;20033;-65
2022/12/03 06:29:28;;;;;;;71.53;38.10;;;;;;;0.45;100.00;160690.44;5033813;28;20543;-65
2022/12/03 06:31:53;;;;;;;57.47;38.15;;;;;;;0.45;100.00;160690.44;5048332;28;20403;-65
2022/12/03 06:34:18;;;;;;;58.17;37.00;;;;;;;0.43;100.00;160685.06;5051840;28;20036;-66
2022/12/03 06:36:45;;;;;;;69.90;38.05;;;;;;;0.41;100.00;160679.75;5032547;28;20045;-65
2022/12/03 06:39:11;;;;;;;64.40;35.15;;;;;;;0.42;100.00;160682.38;5033320;28;20026;-65
2022/12/03 06:41:37;;;;;;;69.13;38.95;;;;;;;0.42;100.00;160683.75;5030162;28;20139;-65
2022/12/03 06:44:02;;;;;;;70.82;36.20;;;;;;;0.40;100.00;160677.06;5040882;28;20048;-65
2022/12/03 06:46:27;;;;;;;66.15;35.60;;;;;;;0.41;100.00;160679.75;5042226;28;20116;-65
2022/12/03 06:48:53;;;;;;;63.58;37.22;;;;;;;0.40;100.00;160677.06;5031984;28;20504;-65
2022/12/03 06:51:34;;;;;;;80.15;39.50;;;;;;;0.41;100.00;160681.06;5007702;28;20052;-65
2022/12/03 06:53:59;;;;;;;72.45;42.40;;;;;;;0.40;100.00;160677.06;5032490;28;20044;-64
2022/12/03 06:56:25;;;;;;;70.93;39.00;;;;;;;0.36;100.00;160666.31;5030605;28;20045;-63
2022/12/03 06:58:50;;;;;;;80.88;39.85;;;;;;;0.31;100.00;160655.59;5033541;28;20025;-63
2022/12/03 07:01:15;;;;;;;88.25;42.13;;;;;;;0.36;100.00;160666.31;5032467;28;20042;-63
2022/12/03 07:03:41;;;;;;;74.18;40.35;;;;;;;0.33;100.00;160658.28;5032284;28;20029;-63
2022/12/03 07:06:06;;;;;;;82.85;45.15;;;;;;;0.34;100.00;160662.31;5029669;28;20049;-63
2022/12/03 07:08:31;;;;;;;82.05;42.03;;;;;;;0.31;100.00;160655.59;5031939;28;20167;-63
2022/12/03 07:10:57;;;;;;;81.60;42.13;;;;;;;0.27;100.00;160643.53;5030026;28;20384;-63
2022/12/03 07:13:22;;;;;;;91.88;46.13;;;;;;;0.31;100.00;160655.59;5041109;28;20017;-63
2022/12/03 07:15:47;;;;;;;88.53;44.45;;;;;;;0.31;100.00;160655.59;5037446;28;20040;-63
2022/12/03 07:18:13;;;;;;;103.60;42.08;;;;;;;0.34;100.00;160660.94;5031908;28;20018;-63
2022/12/03 07:20:38;;;;;;;76.53;40.25;;;;;;;0.30;100.00;160652.91;5031710;28;20492;-63
2022/12/03 07:23:03;;;;;;;90.30;46.38;;;;;;;0.33;100.00;160658.28;5045771;28;20099;-63
2022/12/03 07:25:29;;;;;;;91.88;44.65;;;;;;;0.26;100.00;160642.16;5047215;28;20021;-63
2022/12/03 07:27:54;;;;;;;85.03;44.75;;;;;;;0.23;100.00;160634.16;5046455;28;20493;-63
2022/12/03 07:30:20;;;;;;;90.97;49.45;;;;;;;0.22;100.00;160631.47;5031955;28;20022;-61
2022/12/03 07:32:45;;;;;;;87.35;41.20;;;;;;;0.20;100.00;160624.78;5043035;28;20045;-61
2022/12/03 07:35:10;;;;;;;81.53;39.55;;;;;;;0.22;100.00;160630.16;5045405;28;20590;-60
2022/12/03 07:37:36;;;;;;;82.75;44.20;;;;;;;0.18;100.00;160620.78;5050465;28;20044;-62
2022/12/03 07:40:03;;;;;;;88.93;41.20;;;;;;;0.20;100.00;160626.09;5040233;28;20033;-61
2022/12/03 07:42:28;;;;;;;78.95;41.80;;;;;;;0.19;100.00;160623.41;5030796;28;20123;-61
2022/12/03 07:44:54;;;;;;;84.47;40.75;;;;;;;0.19;100.00;160623.41;5049803;28;20037;-61
2022/12/03 07:47:19;;;;;;;77.10;40.35;;;;;;;0.18;100.00;160620.78;5047399;28;20041;-61
2022/12/03 07:49:44;;;;;;;75.28;39.25;;;;;;;0.15;100.00;160612.72;5051026;28;20017;-61
2022/12/03 07:52:10;;;;;;;72.88;40.03;;;;;;;0.16;100.00;160615.41;5048369;28;20052;-61
2022/12/03 07:54:35;;;;;;;71.45;39.13;;;;;;;0.17;100.00;160616.72;5050679;28;20021;-61
2022/12/03 07:57:00;;;;;;;83.30;40.83;;;;;;;0.09;100.00;160596.63;5047409;28;20032;-61
2022/12/03 07:59:27;;;;;;;90.07;42.60;;;;;;;0.09;100.00;160596.63;5045903;28;20419;-61
2022/12/03 08:01:52;;;;;;;73.55;39.45;;;;;;;0.05;100.00;160587.25;5044691;28;20038;-61
2022/12/03 08:04:19;;;;;;;70.72;39.55;;;;;;;0.09;100.00;160596.63;5031237;28;20087;-60
2022/12/03 08:06:45;;;;;;;83.25;40.40;;;;;;;0.09;100.00;160596.63;5045291;28;20094;-59
2022/12/03 08:09:10;;;;;;;68.93;38.03;;;;;;;0.09;100.00;160596.63;5034663;28;20476;-61
2022/12/03 08:11:36;;;;;;;68.55;34.10;;;;;;;0.09;100.00;160596.63;5028504;28;20044;-61
2022/12/03 08:14:16;;;;;;;59.45;33.92;;;;;;;0.09;100.00;160596.63;5032579;28;20032;-61
2022/12/03 08:16:46;;;;;;;65.97;32.25;;;;;;;0.11;100.00;160602.00;5030041;28;20172;-61
2022/12/03 08:19:15;;;;;;;55.72;30.05;;;;;;;0.12;100.00;160604.66;5030761;28;20040;-61
2022/12/03 08:21:42;;;;;;;48.83;30.65;;;;;;;0.13;100.00;160607.34;5029894;28;20044;-61
2022/12/03 08:24:16;;;;;;;51.97;31.40;;;;;;;0.10;100.00;160599.31;5031124;28;20045;-61
2022/12/03 08:26:44;;;;;;;52.53;32.97;;;;;;;0.14;100.00;160610.00;5023647;28;20102;-61
2022/12/03 08:29:12;;;;;;;62.13;35.65;;;;;;;0.13;100.00;160607.34;5044912;28;20029;-61
2022/12/03 08:31:38;;;;;;;52.65;30.70;;;;;;;0.17;100.00;160618.09;5044035;28;20376;-61
2022/12/03 08:34:37;;;;;;;64.38;36.90;;;;;;;0.23;100.00;160634.16;5033641;28;20112;-62
2022/12/03 08:37:13;;;;;;;50.33;32.00;;;;;;;0.19;100.00;160623.41;5017897;28;20075;-61
2022/12/03 08:39:49;;;;;;;58.15;34.28;;;;;;;0.15;100.00;160612.72;5030846;28;20033;-61
2022/12/03 08:42:40;;;;;;;39.50;24.02;;;;;;;0.14;100.00;160611.38;5029415;28;20103;-61
2022/12/03 08:45:38;;;;;;;53.42;26.17;;;;;;;0.12;100.00;160604.66;5031908;28;20049;-61
2022/12/03 08:48:19;;;;;;;44.22;27.38;;;;;;;0.12;100.00;160606.00;5048531;28;20048;-61
2022/12/03 08:50:45;;;;;;;43.90;26.40;;;;;;;0.07;100.00;160591.25;5049665;28;20017;-61
2022/12/03 08:53:28;;;;;;;42.83;24.27;;;;;;;0.16;100.00;160615.41;5046792;28;20087;-61
2022/12/03 08:55:56;;;;;;;45.42;26.38;;;;;;;0.05;100.00;160587.25;5029508;28;20027;-61
2022/12/03 08:58:26;;;;;;;40.72;24.35;;;;;;;0.10;100.00;160600.63;5031048;28;20377;-61
2022/12/03 09:00:56;;;;;;;35.95;24.13;;;;;;;0.09;100.00;160596.63;5030988;28;20022;-61
2022/12/03 09:03:21;;;;;;;36.20;23.55;;;;;;;0.05;100.00;160585.88;5049178;28;20021;-61
2022/12/03 09:05:47;;;;;;;51.67;31.05;;;;;;;0.03;100.00;160580.56;5049065;28;20423;-60
2022/12/03 09:08:12;;;;;;;62.78;36.63;;;;;;;0.06;100.00;160588.56;5047398;28;20111;-61
2022/12/03 09:10:37;;;;;;;62.03;33.88;;;;;;;0.02;100.00;160577.88;5045379;28;20435;-61
2022/12/03 09:13:03;;;;;;;66.07;33.08;;;;;;;0.03;100.00;160581.88;5028785;28;20459;-61
2022/12/03 09:15:28;;;;;;;40.40;25.98;;;;;;;0.07;100.00;160591.25;5030563;28;20029;-61
2022/12/03 09:17:53;;;;;;;56.30;34.72;;;;;;;0.08;100.00;160593.94;5028466;28;20060;-61
2022/12/03 09:20:19;;;;;;;57.63;31.42;;;;;;;0.05;100.00;160585.88;5042576;28;20048;-61
2022/12/03 09:22:44;;;;;;;51.15;27.10;;;;;;;0.03;100.00;160581.88;5048610;28;20052;-61
2022/12/03 09:25:10;;;;;;;60.20;32.13;;;;;;;0.03;100.00;160580.56;5049418;28;20017;-61
2022/12/03 09:27:35;;;;;;;69.65;33.20;;;;;;;0.08;100.00;160593.94;5048907;28;20528;-61
2022/12/03 09:30:01;;;;;;;69.13;36.35;;;;;;;0.06;100.00;160588.56;5049996;28;20017;-61
2022/12/03 09:32:26;;;;;;;55.97;33.75;;;;;;;0.12;100.00;160604.66;5048293;28;20064;-61
2022/12/03 09:34:52;;;;;;;58.00;32.53;;;;;;;0.09;100.00;160596.63;5049828;28;20028;-61
2022/12/03 09:37:17;;;;;;;65.07;36.78;;;;;;;0.07;100.00;160591.25;5048568;28;20052;-61
2022/12/03 09:39:43;;;;;;;66.20;39.42;;;;;;;0.04;100.00;160583.25;5038045;28;20021;-61
2022/12/03 09:42:09;;;;;;;70.43;37.10;;;;;;;0.06;100.00;160589.94;5029266;28;20423;-61
2022/12/03 09:44:36;;;;;;;74.82;35.70;;;;;;;0.05;100.00;160585.88;5029895;28;20516;-61
2022/12/03 09:47:03;;;;;;;71.43;36.80;;;;;;;0.02;100.00;160577.88;5030005;28;20446;-61
2022/12/03 09:49:31;;;;;;;71.75;39.20;;;;;;;0.11;100.00;160602.00;5045053;28;20014;-61
2022/12/03 09:51:59;;;;;;;70.15;36.63;;;;;;;0.13;100.00;160607.34;5047952;28;20048;-61
2022/12/03 09:54:27;;;;;;;76.43;42.08;;;;;;;0.11;100.00;160602.00;5048820;28;20036;-61
2022/12/03 09:56:54;;;;;;;73.93;39.25;;;;;;;0.02;100.00;160577.88;5048249;28;20055;-61
2022/12/03 09:59:22;;;;;;;79.82;38.35;;;;;;;0.11;100.00;160602.00;5050139;28;20033;-61
2022/12/03 10:01:47;;;;;;;90.20;37.63;;;;;;;0.12;100.00;160604.66;5047820;28;20056;-61
2022/12/03 10:04:13;;;;;;;74.70;39.35;;;;;;;0.09;100.00;160596.63;5048358;28;20487;-61
2022/12/03 10:06:39;;;;;;;77.95;39.00;;;;;;;0.07;100.00;160591.25;5048414;28;20502;-61
2022/12/03 10:09:05;;;;;;;79.75;39.97;;;;;;;0.05;100.00;160587.25;5049520;28;20039;-61
2022/12/03 10:11:33;;;;;;;70.20;35.67;;;;;;;0.09;100.00;160597.94;5048631;28;20071;-61
2022/12/03 10:13:58;;;;;;;73.53;40.00;;;;;;;0.08;100.00;160593.94;5050012;28;20029;-61
2022/12/03 10:16:24;;;;;;;65.35;33.28;;;;;;;0.13;100.00;160607.34;5051687;28;20384;-61
2022/12/03 10:18:53;;;;;;;64.05;33.17;;;;;;;0.06;100.00;160588.56;5041002;28;20017;-62
2022/12/03 10:21:24;;;;;;;73.93;37.72;;;;;;;0.10;100.00;160599.31;5032132;28;20053;-61
2022/12/03 10:24:18;;;;;;;67.35;37.47;;;;;;;0.10;100.00;160599.31;5030894;28;20029;-61
2022/12/03 10:26:45;;;;;;;69.15;37.15;;;;;;;0.13;100.00;160607.34;5028698;28;20033;-61
2022/12/03 10:29:12;;;;;;;62.65;35.20;;;;;;;0.09;100.00;160596.63;5033317;28;20045;-61
2022/12/03 10:31:38;;;;;;;71.28;32.33;;;;;;;0.15;100.00;160612.72;5031547;28;20133;-61
2022/12/03 10:34:03;;;;;;;77.53;36.75;;;;;;;0.14;100.00;160610.00;5032882;28;20021;-61
2022/12/03 10:36:29;;;;;;;75.00;37.65;;;;;;;0.05;100.00;160587.25;5046945;28;20095;-61
2022/12/03 10:39:12;;;;;;;78.00;37.72;;;;;;;0.02;100.00;160577.88;5042268;28;20029;-61
2022/12/03 10:41:39;;;;;;;69.45;35.55;;;;;;;0.08;100.00;160595.25;5046398;28;20049;-61
2022/12/03 10:44:19;;;;;;;64.20;34.33;;;;;;;0.04;100.00;160584.56;5051921;28;20053;-61
2022/12/03 10:46:45;;;;;;;62.05;34.10;;;;;;;0.10;100.00;160599.31;5047578;28;20052;-61
2022/12/03 10:49:16;;;;;;;75.72;39.47;;;;;;;0.11;100.00;160603.31;5032862;28;20052;-61
2022/12/03 10:51:43;;;;;;;72.78;37.28;;;;;;;0.15;100.00;160612.72;5045488;28;20128;-61
2022/12/03 10:54:15;;;;;;;103.72;60.72;;;;;;;0.18;100.00;160620.78;5051764;28;20040;-61
2022/12/03 10:56:42;;;;;;;87.05;48.80;;;;;;;0.27;100.00;160643.53;5045244;28;20044;-61
2022/12/03 10:59:14;;;;;;;80.25;35.38;;;;;;;0.22;100.00;160631.47;5040404;28;20379;-61
2022/12/03 11:01:40;;;;;;;87.00;34.03;;;;;;;0.20;100.00;160626.09;5033658;28;20442;-61
2022/12/03 11:04:16;;;;;;;68.57;35.25;;;;;;;0.15;100.00;160612.72;5050036;28;20155;-61
2022/12/03 11:06:42;;;;;;;65.75;34.03;;;;;;;0.18;100.00;160620.78;5031089;28;20045;-60
2022/12/03 11:09:15;;;;;;;67.05;36.42;;;;;;;0.10;100.00;160600.63;5031185;28;20041;-61
2022/12/03 11:11:40;;;;;;;77.55;38.33;;;;;;;0.21;100.00;160627.47;5031312;28;20033;-61
2022/12/03 11:14:09;;;;;;;77.53;38.42;;;;;;;0.14;100.00;160611.38;5032472;28;20033;-61
2022/12/03 11:16:40;;;;;;;65.32;35.60;;;;;;;0.12;100.00;160604.66;5030783;28;20067;-61
2022/12/03 11:19:11;;;;;;;74.90;38.80;;;;;;;0.03;100.00;160580.56;5015303;28;20396;-61
2022/12/03 11:22:02;;;;;;;70.05;39.08;;;;;;;0.04;100.00;160583.25;5031258;28;20186;-61
2022/12/03 11:24:28;;;;;;;74.60;41.88;;;;;;;-0.06;100.00;160559.13;5032218;28;20052;-61
2022/12/03 11:26:53;;;;;;;73.00;38.75;;;;;;;0.18;100.00;160619.41;5047348;28;20048;-61
2022/12/03 11:29:50;;;;;;;66.03;35.20;;;;;;;0.20;100.00;160626.09;5051975;28;20104;-61